sensor_id;sensor_type;location;lat;lon;timestamp;pressure;altitude;pressure_sealevel;temperature;humidity
65666;BME280;52365;47.464;18.976;2023-05-29T00:00:03;99739.22;;;15.11;62.78
65666;BME280;52365;47.464;18.976;2023-05-29T00:00:25;99732.06;;;15.08;62.78
65666;BME280;52365;47.464;18.976;2023-05-29T00:00:46;99735.06;;;15.16;62.30
65666;BME280;52365;47.464;18.976;2023-05-29T00:01:07;99731.59;;;15.15;62.17
65666;BME280;52365;47.464;18.976;2023-05-29T00:01:29;99740.00;;;15.17;62.30
65666;BME280;52365;47.464;18.976;2023-05-29T00:01:47;99747.19;;;15.26;62.54
65666;BME280;52365;47.464;18.976;2023-05-29T00:02:08;99740.78;;;15.23;62.66
65666;BME280;52365;47.464;18.976;2023-05-29T00:02:29;99737.81;;;15.21;63.17
65666;BME280;52365;47.464;18.976;2023-05-29T00:02:50;99742.25;;;15.24;63.32
65666;BME280;52365;47.464;18.976;2023-05-29T00:03:11;99742.31;;;15.35;63.12
65666;BME280;52365;47.464;18.976;2023-05-29T00:03:33;99740.63;;;15.44;62.69
65666;BME280;52365;47.464;18.976;2023-05-29T00:03:54;99743.84;;;15.48;62.56
65666;BME280;52365;47.464;18.976;2023-05-29T00:04:15;99742.09;;;15.45;62.74
65666;BME280;52365;47.464;18.976;2023-05-29T00:04:36;99739.91;;;15.49;62.58
65666;BME280;52365;47.464;18.976;2023-05-29T00:04:53;99737.91;;;15.49;62.44
65666;BME280;52365;47.464;18.976;2023-05-29T00:05:14;99739.44;;;15.50;62.43
65666;BME280;52365;47.464;18.976;2023-05-29T00:05:36;99736.44;;;15.48;62.65
65666;BME280;52365;47.464;18.976;2023-05-29T00:05:57;99739.66;;;15.52;62.58
65666;BME280;52365;47.464;18.976;2023-05-29T00:06:20;99740.19;;;15.56;62.35
65666;BME280;52365;47.464;18.976;2023-05-29T00:06:42;99742.16;;;15.56;62.23
65666;BME280;52365;47.464;18.976;2023-05-29T00:06:58;99736.72;;;15.50;62.49
65666;BME280;52365;47.464;18.976;2023-05-29T00:07:19;99740.63;;;15.49;62.64
65666;BME280;52365;47.464;18.976;2023-05-29T00:07:41;99737.44;;;15.51;62.69
65666;BME280;52365;47.464;18.976;2023-05-29T00:07:57;99738.44;;;15.53;62.51
65666;BME280;52365;47.464;18.976;2023-05-29T00:08:13;99736.00;;;15.55;62.42
65666;BME280;52365;47.464;18.976;2023-05-29T00:08:34;99741.13;;;15.42;62.62
65666;BME280;52365;47.464;18.976;2023-05-29T00:08:50;99740.81;;;15.34;63.05
65666;BME280;52365;47.464;18.976;2023-05-29T00:09:06;99737.88;;;15.32;63.32
65666;BME280;52365;47.464;18.976;2023-05-29T00:09:27;99738.41;;;15.42;63.15
65666;BME280;52365;47.464;18.976;2023-05-29T00:09:43;99743.13;;;15.47;62.97
65666;BME280;52365;47.464;18.976;2023-05-29T00:10:00;99739.69;;;15.58;62.68
65666;BME280;52365;47.464;18.976;2023-05-29T00:10:21;99737.78;;;15.64;62.32
65666;BME280;52365;47.464;18.976;2023-05-29T00:10:42;99737.28;;;15.66;62.05
65666;BME280;52365;47.464;18.976;2023-05-29T00:11:03;99739.25;;;15.65;61.83
65666;BME280;52365;47.464;18.976;2023-05-29T00:11:20;99738.47;;;15.59;61.63
65666;BME280;52365;47.464;18.976;2023-05-29T00:11:36;99740.91;;;15.57;61.69
65666;BME280;52365;47.464;18.976;2023-05-29T00:11:57;99735.97;;;15.50;61.85
65666;BME280;52365;47.464;18.976;2023-05-29T00:12:18;99739.19;;;15.54;61.85
65666;BME280;52365;47.464;18.976;2023-05-29T00:12:39;99737.69;;;15.53;61.70
65666;BME280;52365;47.464;18.976;2023-05-29T00:13:01;99739.44;;;15.50;61.59
65666;BME280;52365;47.464;18.976;2023-05-29T00:13:22;99736.44;;;15.48;61.76
65666;BME280;52365;47.464;18.976;2023-05-29T00:13:43;99736.66;;;15.39;62.06
65666;BME280;52365;47.464;18.976;2023-05-29T00:14:04;99740.09;;;15.40;62.05
65666;BME280;52365;47.464;18.976;2023-05-29T00:14:25;99732.69;;;15.40;62.03
65666;BME280;52365;47.464;18.976;2023-05-29T00:14:48;99745.53;;;15.40;62.08
65666;BME280;52365;47.464;18.976;2023-05-29T00:15:09;99738.19;;;15.46;61.96
65666;BME280;52365;47.464;18.976;2023-05-29T00:15:31;99739.53;;;15.67;61.58
65666;BME280;52365;47.464;18.976;2023-05-29T00:15:52;99738.09;;;15.89;60.80
65666;BME280;52365;47.464;18.976;2023-05-29T00:16:13;99743.06;;;15.96;60.33
65666;BME280;52365;47.464;18.976;2023-05-29T00:16:34;99735.41;;;16.00;60.08
65666;BME280;52365;47.464;18.976;2023-05-29T00:16:58;99733.19;;;15.98;59.98
65666;BME280;52365;47.464;18.976;2023-05-29T00:17:19;99737.09;;;15.86;60.07
65666;BME280;52365;47.464;18.976;2023-05-29T00:17:41;99735.34;;;15.77;60.53
65666;BME280;52365;47.464;18.976;2023-05-29T00:18:03;99740.81;;;15.89;60.51
65666;BME280;52365;47.464;18.976;2023-05-29T00:18:25;99733.19;;;16.15;59.92
65666;BME280;52365;47.464;18.976;2023-05-29T00:18:46;99736.44;;;16.36;59.17
65666;BME280;52365;47.464;18.976;2023-05-29T00:19:07;99734.22;;;16.46;58.48
65666;BME280;52365;47.464;18.976;2023-05-29T00:19:29;99738.91;;;16.45;58.27
65666;BME280;52365;47.464;18.976;2023-05-29T00:19:50;99740.16;;;16.39;58.02
65666;BME280;52365;47.464;18.976;2023-05-29T00:20:12;99738.16;;;16.22;58.26
65666;BME280;52365;47.464;18.976;2023-05-29T00:20:33;99729.97;;;16.05;58.55
65666;BME280;52365;47.464;18.976;2023-05-29T00:20:55;99735.63;;;15.91;59.38
65666;BME280;52365;47.464;18.976;2023-05-29T00:21:12;99733.09;;;15.70;60.25
65666;BME280;52365;47.464;18.976;2023-05-29T00:21:29;99733.31;;;15.67;60.50
65666;BME280;52365;47.464;18.976;2023-05-29T00:21:51;99732.78;;;15.57;60.90
65666;BME280;52365;47.464;18.976;2023-05-29T00:22:12;99735.69;;;15.48;61.19
65666;BME280;52365;47.464;18.976;2023-05-29T00:22:33;99737.56;;;15.25;62.18
65666;BME280;52365;47.464;18.976;2023-05-29T00:22:49;99733.91;;;15.33;62.19
65666;BME280;52365;47.464;18.976;2023-05-29T00:23:10;99735.66;;;15.36;62.16
65666;BME280;52365;47.464;18.976;2023-05-29T00:23:26;99732.47;;;15.44;62.02
65666;BME280;52365;47.464;18.976;2023-05-29T00:23:47;99727.56;;;15.48;61.85
65666;BME280;52365;47.464;18.976;2023-05-29T00:24:08;99739.91;;;15.49;61.53
65666;BME280;52365;47.464;18.976;2023-05-29T00:24:29;99738.69;;;15.50;61.34
65666;BME280;52365;47.464;18.976;2023-05-29T00:24:50;99735.47;;;15.46;61.33
65666;BME280;52365;47.464;18.976;2023-05-29T00:25:11;99739.44;;;15.50;61.28
65666;BME280;52365;47.464;18.976;2023-05-29T00:25:32;99742.66;;;15.54;61.14
65666;BME280;52365;47.464;18.976;2023-05-29T00:25:53;99742.41;;;15.58;61.00
65666;BME280;52365;47.464;18.976;2023-05-29T00:26:09;99739.72;;;15.64;60.86
65666;BME280;52365;47.464;18.976;2023-05-29T00:26:30;99736.28;;;15.63;60.97
65666;BME280;52365;47.464;18.976;2023-05-29T00:26:51;99737.06;;;15.69;60.85
65666;BME280;52365;47.464;18.976;2023-05-29T00:27:12;99747.72;;;15.84;60.63
65666;BME280;52365;47.464;18.976;2023-05-29T00:27:34;99749.78;;;16.11;60.00
65666;BME280;52365;47.464;18.976;2023-05-29T00:27:55;99750.78;;;16.25;59.34
65666;BME280;52365;47.464;18.976;2023-05-29T00:28:16;99764.63;;;16.22;59.11
65666;BME280;52365;47.464;18.976;2023-05-29T00:28:37;99770.00;;;16.05;59.31
65666;BME280;52365;47.464;18.976;2023-05-29T00:28:58;99764.81;;;15.96;59.66
65666;BME280;52365;47.464;18.976;2023-05-29T00:29:19;99770.47;;;15.86;59.83
65666;BME280;52365;47.464;18.976;2023-05-29T00:29:41;99767.56;;;15.47;60.27
65666;BME280;52365;47.464;18.976;2023-05-29T00:30:03;99762.84;;;15.42;60.87
65666;BME280;52365;47.464;18.976;2023-05-29T00:30:24;99760.13;;;15.42;60.84
65666;BME280;52365;47.464;18.976;2023-05-29T00:30:45;99758.34;;;15.28;60.92
65666;BME280;52365;47.464;18.976;2023-05-29T00:31:07;99757.13;;;15.34;60.62
65666;BME280;52365;47.464;18.976;2023-05-29T00:31:28;99752.62;;;15.69;60.08
65666;BME280;52365;47.464;18.976;2023-05-29T00:31:49;99756.09;;;15.75;59.42
65666;BME280;52365;47.464;18.976;2023-05-29T00:32:14;99766.47;;;15.76;59.35
65666;BME280;52365;47.464;18.976;2023-05-29T00:32:34;99772.66;;;15.82;59.54
65666;BME280;52365;47.464;18.976;2023-05-29T00:32:55;99775.91;;;15.86;59.47
65666;BME280;52365;47.464;18.976;2023-05-29T00:33:17;99775.31;;;15.66;59.60
65666;BME280;52365;47.464;18.976;2023-05-29T00:33:34;99777.47;;;15.56;59.82
65666;BME280;52365;47.464;18.976;2023-05-29T00:33:50;99772.28;;;15.58;59.65
65666;BME280;52365;47.464;18.976;2023-05-29T00:34:11;99769.34;;;15.61;59.57
65666;BME280;52365;47.464;18.976;2023-05-29T00:34:32;99767.91;;;15.66;59.28
65666;BME280;52365;47.464;18.976;2023-05-29T00:34:54;99766.16;;;15.63;59.34
65666;BME280;52365;47.464;18.976;2023-05-29T00:35:15;99763.88;;;15.50;59.39
65666;BME280;52365;47.464;18.976;2023-05-29T00:35:36;99764.19;;;15.15;60.38
65666;BME280;52365;47.464;18.976;2023-05-29T00:35:57;99763.31;;;14.98;61.08
65666;BME280;52365;47.464;18.976;2023-05-29T00:36:18;99765.06;;;15.01;61.23
65666;BME280;52365;47.464;18.976;2023-05-29T00:36:39;99766.03;;;14.98;61.46
65666;BME280;52365;47.464;18.976;2023-05-29T00:37:00;99777.81;;;14.89;61.65
65666;BME280;52365;47.464;18.976;2023-05-29T00:37:22;99761.00;;;14.85;61.77
65666;BME280;52365;47.464;18.976;2023-05-29T00:37:43;99771.47;;;14.98;61.35
65666;BME280;52365;47.464;18.976;2023-05-29T00:38:04;99768.59;;;15.13;60.84
65666;BME280;52365;47.464;18.976;2023-05-29T00:38:25;99765.25;;;15.29;60.44
65666;BME280;52365;47.464;18.976;2023-05-29T00:38:46;99769.94;;;15.28;60.26
65666;BME280;52365;47.464;18.976;2023-05-29T00:39:02;99759.00;;;15.17;60.12
65666;BME280;52365;47.464;18.976;2023-05-29T00:39:23;99761.22;;;14.81;60.73
65666;BME280;52365;47.464;18.976;2023-05-29T00:39:44;99760.75;;;14.83;61.19
65666;BME280;52365;47.464;18.976;2023-05-29T00:40:06;99756.44;;;15.02;60.90
65666;BME280;52365;47.464;18.976;2023-05-29T00:40:28;99750.34;;;15.19;60.42
65666;BME280;52365;47.464;18.976;2023-05-29T00:40:49;99753.88;;;15.30;59.99
65666;BME280;52365;47.464;18.976;2023-05-29T00:41:16;99756.59;;;15.30;59.88
65666;BME280;52365;47.464;18.976;2023-05-29T00:41:32;99750.22;;;15.33;59.88
65666;BME280;52365;47.464;18.976;2023-05-29T00:41:53;99753.44;;;15.38;59.90
65666;BME280;52365;47.464;18.976;2023-05-29T00:42:14;99752.97;;;15.45;59.64
65666;BME280;52365;47.464;18.976;2023-05-29T00:42:35;99759.69;;;15.55;59.42
65666;BME280;52365;47.464;18.976;2023-05-29T00:42:56;99754.09;;;15.75;58.87
65666;BME280;52365;47.464;18.976;2023-05-29T00:43:17;99754.66;;;15.85;58.23
65666;BME280;52365;47.464;18.976;2023-05-29T00:43:38;99759.22;;;15.62;58.79
65666;BME280;52365;47.464;18.976;2023-05-29T00:43:59;99760.38;;;15.44;59.15
65666;BME280;52365;47.464;18.976;2023-05-29T00:44:15;99761.78;;;15.28;59.52
65666;BME280;52365;47.464;18.976;2023-05-29T00:44:36;99753.12;;;15.24;59.79
65666;BME280;52365;47.464;18.976;2023-05-29T00:44:57;99760.97;;;14.79;60.79
65666;BME280;52365;47.464;18.976;2023-05-29T00:45:18;99758.34;;;14.59;61.81
65666;BME280;52365;47.464;18.976;2023-05-29T00:45:39;99760.97;;;14.79;62.04
65666;BME280;52365;47.464;18.976;2023-05-29T00:46:00;99765.34;;;15.03;61.16
65666;BME280;52365;47.464;18.976;2023-05-29T00:46:21;99749.56;;;15.07;60.47
65666;BME280;52365;47.464;18.976;2023-05-29T00:46:42;99751.03;;;15.08;60.46
65666;BME280;52365;47.464;18.976;2023-05-29T00:47:03;99740.72;;;15.12;60.19
65666;BME280;52365;47.464;18.976;2023-05-29T00:47:25;99745.06;;;14.98;60.54
65666;BME280;52365;47.464;18.976;2023-05-29T00:47:46;99743.16;;;15.10;60.54
65666;BME280;52365;47.464;18.976;2023-05-29T00:48:07;99743.75;;;15.31;59.94
65666;BME280;52365;47.464;18.976;2023-05-29T00:48:29;99743.03;;;15.36;59.88
65666;BME280;52365;47.464;18.976;2023-05-29T00:48:50;99748.75;;;15.38;60.09
65666;BME280;52365;47.464;18.976;2023-05-29T00:49:06;99743.63;;;15.51;60.00
65666;BME280;52365;47.464;18.976;2023-05-29T00:49:22;99742.66;;;15.60;59.60
65666;BME280;52365;47.464;18.976;2023-05-29T00:49:44;99741.53;;;15.78;59.25
65666;BME280;52365;47.464;18.976;2023-05-29T00:50:05;99744.00;;;15.81;58.25
65666;BME280;52365;47.464;18.976;2023-05-29T00:50:27;99737.84;;;15.81;57.71
65666;BME280;52365;47.464;18.976;2023-05-29T00:50:48;99740.81;;;15.89;57.26
65666;BME280;52365;47.464;18.976;2023-05-29T00:51:10;99747.00;;;15.95;57.09
65666;BME280;52365;47.464;18.976;2023-05-29T00:51:32;99744.53;;;15.91;56.20
65666;BME280;52365;47.464;18.976;2023-05-29T00:51:51;99740.56;;;15.81;56.01
65666;BME280;52365;47.464;18.976;2023-05-29T00:52:12;99741.53;;;15.83;56.12
65666;BME280;52365;47.464;18.976;2023-05-29T00:52:34;99746.97;;;15.83;56.46
65666;BME280;52365;47.464;18.976;2023-05-29T00:52:56;99741.53;;;15.83;56.67
65666;BME280;52365;47.464;18.976;2023-05-29T00:53:17;99739.81;;;15.80;56.56
65666;BME280;52365;47.464;18.976;2023-05-29T00:53:40;99738.06;;;15.77;57.46
65666;BME280;52365;47.464;18.976;2023-05-29T00:54:01;99731.66;;;15.80;57.13
65666;BME280;52365;47.464;18.976;2023-05-29T00:54:26;99735.34;;;15.77;57.30
65666;BME280;52365;47.464;18.976;2023-05-29T00:54:49;99743.00;;;15.84;56.68
65666;BME280;52365;47.464;18.976;2023-05-29T00:55:10;99745.25;;;15.80;56.67
65666;BME280;52365;47.464;18.976;2023-05-29T00:55:28;99743.00;;;15.84;56.58
65666;BME280;52365;47.464;18.976;2023-05-29T00:55:50;99736.34;;;15.80;56.54
65666;BME280;52365;47.464;18.976;2023-05-29T00:56:12;99734.13;;;15.78;56.43
65666;BME280;52365;47.464;18.976;2023-05-29T00:56:38;99731.91;;;15.82;56.32
65666;BME280;52365;47.464;18.976;2023-05-29T00:57:01;99728.22;;;15.91;55.87
65666;BME280;52365;47.464;18.976;2023-05-29T00:57:18;99733.19;;;15.98;55.52
65666;BME280;52365;47.464;18.976;2023-05-29T00:57:40;99727.25;;;16.00;55.65
65666;BME280;52365;47.464;18.976;2023-05-29T00:58:01;99728.72;;;16.06;55.70
65666;BME280;52365;47.464;18.976;2023-05-29T00:58:22;99729.00;;;16.08;55.54
65666;BME280;52365;47.464;18.976;2023-05-29T00:58:44;99734.94;;;16.07;55.41
65666;BME280;52365;47.464;18.976;2023-05-29T00:59:05;99733.69;;;16.02;55.60
65666;BME280;52365;47.464;18.976;2023-05-29T00:59:21;99731.69;;;15.97;56.03
65666;BME280;52365;47.464;18.976;2023-05-29T00:59:39;99732.41;;;15.86;57.32
65666;BME280;52365;47.464;18.976;2023-05-29T00:59:56;99733.44;;;15.95;57.39
65666;BME280;52365;47.464;18.976;2023-05-29T01:00:18;99737.38;;;15.99;57.10
65666;BME280;52365;47.464;18.976;2023-05-29T01:00:34;99730.72;;;16.06;57.04
65666;BME280;52365;47.464;18.976;2023-05-29T01:00:56;99733.22;;;16.26;56.56
65666;BME280;52365;47.464;18.976;2023-05-29T01:01:18;99728.78;;;16.40;55.48
65666;BME280;52365;47.464;18.976;2023-05-29T01:01:40;99737.44;;;16.50;54.79
65666;BME280;52365;47.464;18.976;2023-05-29T01:02:02;99732.75;;;16.39;54.41
65666;BME280;52365;47.464;18.976;2023-05-29T01:02:20;99728.50;;;15.99;55.34
65666;BME280;52365;47.464;18.976;2023-05-29T01:02:42;99729.00;;;16.14;55.49
65666;BME280;52365;47.464;18.976;2023-05-29T01:03:06;99734.16;;;16.06;55.70
65666;BME280;52365;47.464;18.976;2023-05-29T01:03:24;99727.28;;;16.22;55.35
65666;BME280;52365;47.464;18.976;2023-05-29T01:03:45;99731.97;;;16.27;55.30
65666;BME280;52365;47.464;18.976;2023-05-29T01:04:07;99733.69;;;16.19;55.54
65666;BME280;52365;47.464;18.976;2023-05-29T01:04:28;99731.75;;;16.36;55.22
65666;BME280;52365;47.464;18.976;2023-05-29T01:04:49;99729.28;;;16.50;54.65
65666;BME280;52365;47.464;18.976;2023-05-29T01:05:06;99730.28;;;16.47;54.64
65666;BME280;52365;47.464;18.976;2023-05-29T01:05:27;99726.56;;;16.44;54.68
65666;BME280;52365;47.464;18.976;2023-05-29T01:05:49;99730.03;;;16.39;54.64
65666;BME280;52365;47.464;18.976;2023-05-29T01:06:10;99730.25;;;16.13;55.31
65666;BME280;52365;47.464;18.976;2023-05-29T01:06:32;99730.25;;;16.13;55.58
65666;BME280;52365;47.464;18.976;2023-05-29T01:06:53;99725.53;;;16.19;55.82
65666;BME280;52365;47.464;18.976;2023-05-29T01:07:14;99725.81;;;16.38;55.24
65666;BME280;52365;47.464;18.976;2023-05-29T01:07:36;99725.56;;;16.30;55.06
65666;BME280;52365;47.464;18.976;2023-05-29T01:07:57;99733.00;;;16.24;55.26
65666;BME280;52365;47.464;18.976;2023-05-29T01:08:18;99725.53;;;16.08;55.89
65666;BME280;52365;47.464;18.976;2023-05-29T01:08:40;99725.31;;;16.17;55.94
65666;BME280;52365;47.464;18.976;2023-05-29T01:09:01;99727.53;;;16.35;55.51
65666;BME280;52365;47.464;18.976;2023-05-29T01:09:24;99732.50;;;16.43;55.15
65666;BME280;52365;47.464;18.976;2023-05-29T01:09:45;99735.44;;;16.50;54.78
65666;BME280;52365;47.464;18.976;2023-05-29T01:10:06;99729.28;;;16.44;54.73
65666;BME280;52365;47.464;18.976;2023-05-29T01:10:28;99726.81;;;16.41;54.76
65666;BME280;52365;47.464;18.976;2023-05-29T01:10:51;99734.19;;;16.23;54.96
65666;BME280;52365;47.464;18.976;2023-05-29T01:11:31;99735.22;;;16.20;55.24
65666;BME280;52365;47.464;18.976;2023-05-29T01:11:58;99730.97;;;16.14;55.35
65666;BME280;52365;47.464;18.976;2023-05-29T01:13:34;99730.47;;;15.98;55.80
65666;BME280;52365;47.464;18.976;2023-05-29T01:13:57;99721.78;;;15.77;57.30
65666;BME280;52365;47.464;18.976;2023-05-29T01:15:56;99739.41;;;16.16;55.89
65666;BME280;52365;47.464;18.976;2023-05-29T01:16:28;99735.22;;;16.54;54.47
65666;BME280;52365;47.464;18.976;2023-05-29T01:16:59;99740.66;;;16.43;54.31
65666;BME280;52365;47.464;18.976;2023-05-29T01:17:37;99741.59;;;16.06;55.19
65666;BME280;52365;47.464;18.976;2023-05-29T01:18:16;99742.13;;;16.21;55.18
65666;BME280;52365;47.464;18.976;2023-05-29T01:18:46;99740.09;;;15.94;56.11
65666;BME280;52365;47.464;18.976;2023-05-29T01:20:12;99746.50;;;15.91;55.87
65666;BME280;52365;47.464;18.976;2023-05-29T01:21:46;99739.16;;;15.48;57.47
65666;BME280;52365;47.464;18.976;2023-05-29T01:24:29;99737.75;;;15.58;57.39
65666;BME280;52365;47.464;18.976;2023-05-29T01:24:50;99737.97;;;15.55;57.93
65666;BME280;52365;47.464;18.976;2023-05-29T01:26:42;99738.03;;;15.66;57.78
65666;BME280;52365;47.464;18.976;2023-05-29T01:27:09;99734.75;;;15.56;58.51
65666;BME280;52365;47.464;18.976;2023-05-29T01:27:31;99739.00;;;15.63;58.49
65666;BME280;52365;47.464;18.976;2023-05-29T01:27:54;99734.28;;;15.64;58.26
65666;BME280;52365;47.464;18.976;2023-05-29T01:28:20;99735.50;;;15.57;58.39
65666;BME280;52365;47.464;18.976;2023-05-29T01:28:48;99733.00;;;15.53;58.39
65666;BME280;52365;47.464;18.976;2023-05-29T01:29:13;99736.66;;;15.39;58.94
65666;BME280;52365;47.464;18.976;2023-05-29T01:29:34;99739.06;;;15.31;59.19
65666;BME280;52365;47.464;18.976;2023-05-29T01:29:58;99739.06;;;15.31;59.41
65666;BME280;52365;47.464;18.976;2023-05-29T01:30:22;99729.75;;;15.38;59.34
65666;BME280;52365;47.464;18.976;2023-05-29T01:30:44;99729.22;;;15.34;59.61
65666;BME280;52365;47.464;18.976;2023-05-29T01:31:07;99732.44;;;15.32;59.92
65666;BME280;52365;47.464;18.976;2023-05-29T01:31:25;99730.88;;;15.20;60.44
65666;BME280;52365;47.464;18.976;2023-05-29T01:31:47;99734.13;;;15.30;60.21
65666;BME280;52365;47.464;18.976;2023-05-29T01:32:09;99734.44;;;15.38;59.86
65666;BME280;52365;47.464;18.976;2023-05-29T01:32:30;99725.06;;;15.39;59.68
65666;BME280;52365;47.464;18.976;2023-05-29T01:32:51;99739.59;;;15.35;59.79
65666;BME280;52365;47.464;18.976;2023-05-29T01:33:13;99732.88;;;15.25;60.23
65666;BME280;52365;47.464;18.976;2023-05-29T01:33:34;99730.09;;;15.14;60.59
65666;BME280;52365;47.464;18.976;2023-05-29T01:33:56;99733.09;;;15.16;60.50
65666;BME280;52365;47.464;18.976;2023-05-29T01:34:18;99722.66;;;15.09;60.83
65666;BME280;52365;47.464;18.976;2023-05-29T01:34:39;99731.84;;;15.17;60.74
65666;BME280;52365;47.464;18.976;2023-05-29T01:35:00;99727.66;;;15.16;60.87
65666;BME280;52365;47.464;18.976;2023-05-29T01:35:16;99728.41;;;15.22;60.74
65666;BME280;52365;47.464;18.976;2023-05-29T01:35:37;99733.66;;;15.31;60.46
65666;BME280;52365;47.464;18.976;2023-05-29T01:35:58;99732.47;;;15.44;59.98
65666;BME280;52365;47.464;18.976;2023-05-29T01:36:19;99725.13;;;15.50;59.54
65666;BME280;52365;47.464;18.976;2023-05-29T01:36:40;99732.47;;;15.44;59.30
65666;BME280;52365;47.464;18.976;2023-05-29T01:37:02;99737.62;;;15.36;59.30
65666;BME280;52365;47.464;18.976;2023-05-29T01:37:23;99731.19;;;15.28;59.49
65666;BME280;52365;47.464;18.976;2023-05-29T01:37:44;99722.03;;;15.25;59.77
65666;BME280;52365;47.464;18.976;2023-05-29T01:38:05;99727.13;;;15.12;60.54
65666;BME280;52365;47.464;18.976;2023-05-29T01:38:26;99727.66;;;15.16;60.61
65666;BME280;52365;47.464;18.976;2023-05-29T01:38:49;99724.44;;;15.12;60.78
65666;BME280;52365;47.464;18.976;2023-05-29T01:39:05;99726.87;;;15.10;61.06
65666;BME280;52365;47.464;18.976;2023-05-29T01:39:27;99727.34;;;15.03;61.06
65666;BME280;52365;47.464;18.976;2023-05-29T01:39:49;99723.59;;;15.00;60.91
65666;BME280;52365;47.464;18.976;2023-05-29T01:40:06;99726.81;;;14.99;61.09
65666;BME280;52365;47.464;18.976;2023-05-29T01:40:27;99723.38;;;15.04;61.20
65666;BME280;52365;47.464;18.976;2023-05-29T01:40:48;99720.19;;;15.05;61.25
65666;BME280;52365;47.464;18.976;2023-05-29T01:41:10;99726.63;;;15.08;61.25
65666;BME280;52365;47.464;18.976;2023-05-29T01:41:28;99727.37;;;15.14;61.06
65666;BME280;52365;47.464;18.976;2023-05-29T01:41:50;99726.69;;;15.19;60.83
65666;BME280;52365;47.464;18.976;2023-05-29T01:42:12;99722.75;;;15.20;60.68
65666;BME280;52365;47.464;18.976;2023-05-29T01:42:33;99721.94;;;15.14;60.98
65666;BME280;52365;47.464;18.976;2023-05-29T01:42:54;99720.97;;;15.11;61.06
65666;BME280;52365;47.464;18.976;2023-05-29T01:43:16;99721.00;;;15.17;60.92
65666;BME280;52365;47.464;18.976;2023-05-29T01:43:37;99725.47;;;15.20;60.73
65666;BME280;52365;47.464;18.976;2023-05-29T01:43:54;99712.66;;;15.26;60.54
65666;BME280;52365;47.464;18.976;2023-05-29T01:44:17;99723.28;;;15.30;60.39
65666;BME280;52365;47.464;18.976;2023-05-29T01:44:39;99719.31;;;15.25;60.42
65666;BME280;52365;47.464;18.976;2023-05-29T01:45:01;99719.03;;;15.18;60.87
65666;BME280;52365;47.464;18.976;2023-05-29T01:45:24;99719.50;;;15.16;61.11
65666;BME280;52365;47.464;18.976;2023-05-29T01:45:46;99719.28;;;15.20;60.84
65666;BME280;52365;47.464;18.976;2023-05-29T01:46:07;99723.50;;;15.26;60.26
65666;BME280;52365;47.464;18.976;2023-05-29T01:46:28;99717.84;;;15.24;60.15
65666;BME280;52365;47.464;18.976;2023-05-29T01:46:49;99718.06;;;15.21;60.27
65666;BME280;52365;47.464;18.976;2023-05-29T01:47:07;99712.34;;;15.19;60.28
65666;BME280;52365;47.464;18.976;2023-05-29T01:47:23;99716.28;;;15.12;60.68
65666;BME280;52365;47.464;18.976;2023-05-29T01:47:45;99712.81;;;15.11;60.83
65666;BME280;52365;47.464;18.976;2023-05-29T01:48:06;99710.13;;;15.17;60.77
65666;BME280;52365;47.464;18.976;2023-05-29T01:48:28;99718.34;;;15.28;60.43
65666;BME280;52365;47.464;18.976;2023-05-29T01:48:49;99717.13;;;15.29;60.20
65666;BME280;52365;47.464;18.976;2023-05-29T01:49:11;99715.12;;;15.30;60.01
65666;BME280;52365;47.464;18.976;2023-05-29T01:49:32;99713.88;;;15.25;59.87
65666;BME280;52365;47.464;18.976;2023-05-29T01:49:54;99723.50;;;15.26;59.94
65666;BME280;52365;47.464;18.976;2023-05-29T01:50:13;99716.38;;;15.34;59.75
65666;BME280;52365;47.464;18.976;2023-05-29T01:50:36;99714.69;;;15.43;59.49
65666;BME280;52365;47.464;18.976;2023-05-29T01:50:58;99721.41;;;15.53;59.18
65666;BME280;52365;47.464;18.976;2023-05-29T01:51:19;99719.19;;;15.57;58.96
65666;BME280;52365;47.464;18.976;2023-05-29T01:51:36;99719.41;;;15.53;58.75
65666;BME280;52365;47.464;18.976;2023-05-29T01:51:58;99716.44;;;15.46;58.88
65666;BME280;52365;47.464;18.976;2023-05-29T01:52:19;99711.72;;;15.41;58.95
65666;BME280;52365;47.464;18.976;2023-05-29T01:52:40;99711.97;;;15.37;59.13
65666;BME280;52365;47.464;18.976;2023-05-29T01:52:56;99710.97;;;15.34;59.14
65666;BME280;52365;47.464;18.976;2023-05-29T01:53:18;99718.81;;;15.27;59.35
65666;BME280;52365;47.464;18.976;2023-05-29T01:53:41;99705.44;;;15.18;60.18
65666;BME280;52365;47.464;18.976;2023-05-29T01:54:03;99710.91;;;15.23;60.24
65666;BME280;52365;47.464;18.976;2023-05-29T01:54:19;99711.69;;;15.29;59.93
65666;BME280;52365;47.464;18.976;2023-05-29T01:54:41;99716.16;;;15.32;59.85
65666;BME280;52365;47.464;18.976;2023-05-29T01:55:02;99716.41;;;15.40;59.58
65666;BME280;52365;47.464;18.976;2023-05-29T01:55:23;99708.81;;;15.50;59.24
65666;BME280;52365;47.464;18.976;2023-05-29T01:55:44;99714.19;;;15.39;58.85
65666;BME280;52365;47.464;18.976;2023-05-29T01:56:06;99721.81;;;15.34;59.13
65666;BME280;52365;47.464;18.976;2023-05-29T01:56:29;99717.34;;;15.26;59.10
65666;BME280;52365;47.464;18.976;2023-05-29T01:56:51;99719.53;;;15.22;59.60
65666;BME280;52365;47.464;18.976;2023-05-29T01:57:13;99714.31;;;15.18;60.23
65666;BME280;52365;47.464;18.976;2023-05-29T01:57:29;99712.84;;;15.17;60.39
65666;BME280;52365;47.464;18.976;2023-05-29T01:57:50;99715.12;;;15.24;60.23
65666;BME280;52365;47.464;18.976;2023-05-29T01:58:13;99706.53;;;15.37;59.82
65666;BME280;52365;47.464;18.976;2023-05-29T01:58:35;99713.25;;;15.53;59.42
65666;BME280;52365;47.464;18.976;2023-05-29T01:58:58;99711.25;;;15.48;59.00
65666;BME280;52365;47.464;18.976;2023-05-29T01:59:19;99709.78;;;15.47;58.95
65666;BME280;52365;47.464;18.976;2023-05-29T01:59:42;99721.09;;;15.40;58.85